createdAt,value
2023-01-07T01:06:53.813Z,67.11
2023-01-07T01:09:25.914Z,67.03
2023-01-07T01:11:58.178Z,66.88
2023-01-07T01:14:32.462Z,66.95
2023-01-07T01:17:02.278Z,66.81
2023-01-07T01:19:32.321Z,66.92
2023-01-07T01:47:59.139Z,66.25
2023-01-07T01:50:45.855Z,66.68
2023-01-07T01:53:36.866Z,66.71
2023-01-07T01:56:32.246Z,66.92
2023-01-07T01:59:19.999Z,66.41
2023-01-07T02:01:51.567Z,66.77
2023-01-07T02:04:28.481Z,66.58
2023-01-07T02:07:06.954Z,66.33
2023-01-07T02:09:41.082Z,66.72
2023-01-07T02:12:19.961Z,66.73
2023-01-07T02:15:51.191Z,66.67
2023-01-07T02:18:41.249Z,66.45
2023-01-07T02:21:44.361Z,66.68
2023-01-07T02:24:38.282Z,66.48
2023-01-07T02:27:48.151Z,66.55
2023-01-07T02:30:19.332Z,67.00
2023-01-07T02:33:19.338Z,66.02
2023-01-07T02:36:04.178Z,66.23
2023-01-07T02:39:04.786Z,66.46
2023-01-07T02:41:39.170Z,66.06
2023-01-07T02:44:41.533Z,66.38
2023-01-07T02:47:31.340Z,66.61
2023-01-07T02:50:06.014Z,66.92
2023-01-07T03:14:56.906Z,67.05
2023-01-07T12:19:07.437Z,68.09
2023-01-07T13:02:43.209Z,66.47
2023-01-07T13:18:19.188Z,67.38
2023-01-07T13:59:52.775Z,66.42
2023-01-07T14:07:56.328Z,66.97
2023-01-07T14:49:16.516Z,68.38
2023-01-07T15:16:04.499Z,68.02
2023-01-07T15:24:39.034Z,67.42
2023-01-07T15:31:33.942Z,67.54
2023-01-07T15:34:54.189Z,67.88
2023-01-07T15:38:03.504Z,68.30
2023-01-07T15:41:33.664Z,67.88
2023-01-07T15:45:04.351Z,68.05
2023-01-07T15:56:40.353Z,67.75
2023-01-07T15:59:29.443Z,67.75
2023-01-07T16:21:25.895Z,67.80
2023-01-07T16:42:51.088Z,67.84
2023-01-07T17:49:05.639Z,68.70
2023-01-07T21:50:13.502Z,68.41
2023-01-07T22:04:36.347Z,67.18
2023-01-07T22:07:05.817Z,68.27
2023-01-07T22:09:33.697Z,68.10
2023-01-07T22:12:01.466Z,67.20
2023-01-07T22:14:29.237Z,67.17
2023-01-07T22:16:56.811Z,68.01
2023-01-07T22:19:26.364Z,66.86
2023-01-07T22:21:54.102Z,67.56
2023-01-07T22:24:21.914Z,66.83
2023-01-07T22:26:49.631Z,67.27
2023-01-07T22:29:17.740Z,67.50
2023-01-07T22:31:48.527Z,67.03
2023-01-07T22:34:16.483Z,67.57
2023-01-07T22:37:11.686Z,66.64
2023-01-07T22:39:54.424Z,67.35
2023-01-07T22:42:46.053Z,67.31
2023-01-07T23:34:12.971Z,67.56
